sensor_id;sensor_type;location;lat;lon;timestamp;temperature;humidity
11536;DHT22;5824;49.336;8.652;2023-10-09T00:00:33;14.30;1.00
11536;DHT22;5824;49.336;8.652;2023-10-09T00:03:17;14.30;1.00
11536;DHT22;5824;49.336;8.652;2023-10-09T00:05:43;14.20;1.00
11536;DHT22;5824;49.336;8.652;2023-10-09T00:08:12;14.30;1.00
11536;DHT22;5824;49.336;8.652;2023-10-09T00:10:50;14.30;1.00
11536;DHT22;5824;49.336;8.652;2023-10-09T00:13:20;14.30;1.00
11536;DHT22;5824;49.336;8.652;2023-10-09T00:15:52;14.20;1.00
11536;DHT22;5824;49.336;8.652;2023-10-09T00:18:19;14.20;1.00
11536;DHT22;5824;49.336;8.652;2023-10-09T00:20:48;14.20;1.00
11536;DHT22;5824;49.336;8.652;2023-10-09T00:23:19;14.20;1.00
11536;DHT22;5824;49.336;8.652;2023-10-09T00:25:49;14.20;1.00
11536;DHT22;5824;49.336;8.652;2023-10-09T00:28:30;14.20;1.00
11536;DHT22;5824;49.336;8.652;2023-10-09T00:30:56;14.10;1.00
11536;DHT22;5824;49.336;8.652;2023-10-09T00:33:21;14.00;1.00
11536;DHT22;5824;49.336;8.652;2023-10-09T00:35:48;14.00;1.00
11536;DHT22;5824;49.336;8.652;2023-10-09T00:38:19;14.00;1.00
11536;DHT22;5824;49.336;8.652;2023-10-09T00:40:45;14.00;1.00
11536;DHT22;5824;49.336;8.652;2023-10-09T00:43:15;14.00;1.00
11536;DHT22;5824;49.336;8.652;2023-10-09T00:45:42;14.10;1.00
11536;DHT22;5824;49.336;8.652;2023-10-09T00:48:10;14.00;1.00
11536;DHT22;5824;49.336;8.652;2023-10-09T00:50:39;14.10;1.00
11536;DHT22;5824;49.336;8.652;2023-10-09T00:53:12;14.10;1.00
11536;DHT22;5824;49.336;8.652;2023-10-09T00:55:43;14.10;1.00
11536;DHT22;5824;49.336;8.652;2023-10-09T00:58:21;14.10;1.00
11536;DHT22;5824;49.336;8.652;2023-10-09T01:00:50;14.00;1.00
11536;DHT22;5824;49.336;8.652;2023-10-09T01:03:18;14.00;1.00
11536;DHT22;5824;49.336;8.652;2023-10-09T01:05:48;13.90;1.00
11536;DHT22;5824;49.336;8.652;2023-10-09T01:08:19;14.00;1.00
11536;DHT22;5824;49.336;8.652;2023-10-09T01:10:52;14.10;1.00
11536;DHT22;5824;49.336;8.652;2023-10-09T01:13:35;14.10;1.00
11536;DHT22;5824;49.336;8.652;2023-10-09T01:16:16;14.20;1.00
11536;DHT22;5824;49.336;8.652;2023-10-09T01:18:46;14.20;1.00
11536;DHT22;5824;49.336;8.652;2023-10-09T01:21:15;14.20;1.00
11536;DHT22;5824;49.336;8.652;2023-10-09T01:23:45;14.20;1.00
11536;DHT22;5824;49.336;8.652;2023-10-09T01:29:08;14.20;1.00
11536;DHT22;5824;49.336;8.652;2023-10-09T01:31:41;14.30;1.00
11536;DHT22;5824;49.336;8.652;2023-10-09T01:34:26;14.30;1.00
11536;DHT22;5824;49.336;8.652;2023-10-09T01:37:13;14.40;1.00
11536;DHT22;5824;49.336;8.652;2023-10-09T01:39:49;14.40;1.00
11536;DHT22;5824;49.336;8.652;2023-10-09T01:42:20;14.60;1.00
11536;DHT22;5824;49.336;8.652;2023-10-09T01:44:59;14.50;1.00
11536;DHT22;5824;49.336;8.652;2023-10-09T01:47:36;14.60;1.00
11536;DHT22;5824;49.336;8.652;2023-10-09T01:50:04;14.60;1.00
11536;DHT22;5824;49.336;8.652;2023-10-09T01:52:30;14.60;1.00
11536;DHT22;5824;49.336;8.652;2023-10-09T01:54:56;14.60;1.00
11536;DHT22;5824;49.336;8.652;2023-10-09T01:57:29;14.70;1.00
11536;DHT22;5824;49.336;8.652;2023-10-09T01:59:55;14.70;1.00
11536;DHT22;5824;49.336;8.652;2023-10-09T02:02:25;14.70;1.00
11536;DHT22;5824;49.336;8.652;2023-10-09T02:04:52;14.70;1.00
11536;DHT22;5824;49.336;8.652;2023-10-09T02:07:18;14.70;1.00
11536;DHT22;5824;49.336;8.652;2023-10-09T02:09:52;14.70;1.00
11536;DHT22;5824;49.336;8.652;2023-10-09T02:12:19;14.70;1.00
11536;DHT22;5824;49.336;8.652;2023-10-09T02:14:47;14.80;1.00
11536;DHT22;5824;49.336;8.652;2023-10-09T02:17:12;14.80;1.00
11536;DHT22;5824;49.336;8.652;2023-10-09T02:19:44;14.80;1.00
11536;DHT22;5824;49.336;8.652;2023-10-09T02:22:14;14.80;1.00
11536;DHT22;5824;49.336;8.652;2023-10-09T02:24:44;14.80;1.00
11536;DHT22;5824;49.336;8.652;2023-10-09T02:27:23;14.80;1.00
11536;DHT22;5824;49.336;8.652;2023-10-09T02:30:10;14.80;1.00
11536;DHT22;5824;49.336;8.652;2023-10-09T02:32:45;14.70;1.00
11536;DHT22;5824;49.336;8.652;2023-10-09T02:35:20;14.70;1.00
11536;DHT22;5824;49.336;8.652;2023-10-09T02:38:05;14.70;1.00
11536;DHT22;5824;49.336;8.652;2023-10-09T02:40:34;14.60;1.00
11536;DHT22;5824;49.336;8.652;2023-10-09T02:43:07;14.60;1.00
11536;DHT22;5824;49.336;8.652;2023-10-09T02:45:37;14.30;1.00
11536;DHT22;5824;49.336;8.652;2023-10-09T02:48:16;14.60;1.00
11536;DHT22;5824;49.336;8.652;2023-10-09T02:50:44;14.60;1.00
11536;DHT22;5824;49.336;8.652;2023-10-09T02:53:10;14.70;1.00
11536;DHT22;5824;49.336;8.652;2023-10-09T02:55:44;14.70;1.00
11536;DHT22;5824;49.336;8.652;2023-10-09T02:58:18;14.70;1.00
11536;DHT22;5824;49.336;8.652;2023-10-09T03:00:46;14.70;1.00
11536;DHT22;5824;49.336;8.652;2023-10-09T03:03:13;14.70;1.00
11536;DHT22;5824;49.336;8.652;2023-10-09T03:05:44;14.70;1.00
11536;DHT22;5824;49.336;8.652;2023-10-09T03:08:10;14.90;1.00
11536;DHT22;5824;49.336;8.652;2023-10-09T03:10:38;14.80;1.00
11536;DHT22;5824;49.336;8.652;2023-10-09T03:13:04;14.80;1.00
11536;DHT22;5824;49.336;8.652;2023-10-09T03:15:31;14.80;1.00
11536;DHT22;5824;49.336;8.652;2023-10-09T03:18:01;14.90;1.00
11536;DHT22;5824;49.336;8.652;2023-10-09T03:20:27;14.90;1.00
11536;DHT22;5824;49.336;8.652;2023-10-09T03:22:55;14.90;1.00
11536;DHT22;5824;49.336;8.652;2023-10-09T03:25:23;14.90;1.00
11536;DHT22;5824;49.336;8.652;2023-10-09T03:27:50;14.90;1.00
11536;DHT22;5824;49.336;8.652;2023-10-09T03:30:18;14.90;1.00
11536;DHT22;5824;49.336;8.652;2023-10-09T03:32:53;15.00;1.00
11536;DHT22;5824;49.336;8.652;2023-10-09T03:35:22;14.90;1.00
11536;DHT22;5824;49.336;8.652;2023-10-09T03:37:55;14.90;1.00
11536;DHT22;5824;49.336;8.652;2023-10-09T03:40:23;14.90;1.00
11536;DHT22;5824;49.336;8.652;2023-10-09T03:42:48;14.80;1.00
11536;DHT22;5824;49.336;8.652;2023-10-09T03:45:14;14.80;1.00
11536;DHT22;5824;49.336;8.652;2023-10-09T03:47:54;14.80;1.00
11536;DHT22;5824;49.336;8.652;2023-10-09T03:50:28;14.80;1.00
11536;DHT22;5824;49.336;8.652;2023-10-09T03:53:02;14.70;1.00
11536;DHT22;5824;49.336;8.652;2023-10-09T03:55:28;14.60;1.00
11536;DHT22;5824;49.336;8.652;2023-10-09T03:57:55;14.60;1.00
11536;DHT22;5824;49.336;8.652;2023-10-09T04:00:23;14.50;1.00
11536;DHT22;5824;49.336;8.652;2023-10-09T04:02:56;14.50;1.00
11536;DHT22;5824;49.336;8.652;2023-10-09T04:05:23;14.50;1.00
11536;DHT22;5824;49.336;8.652;2023-10-09T04:07:49;14.40;1.00
11536;DHT22;5824;49.336;8.652;2023-10-09T04:10:14;14.40;1.00
11536;DHT22;5824;49.336;8.652;2023-10-09T04:13:08;14.40;1.00
11536;DHT22;5824;49.336;8.652;2023-10-09T04:15:37;14.50;1.00
11536;DHT22;5824;49.336;8.652;2023-10-09T04:18:03;14.60;1.00
11536;DHT22;5824;49.336;8.652;2023-10-09T04:20:31;14.50;1.00
11536;DHT22;5824;49.336;8.652;2023-10-09T04:22:59;14.40;1.00
11536;DHT22;5824;49.336;8.652;2023-10-09T04:25:30;14.30;1.00
11536;DHT22;5824;49.336;8.652;2023-10-09T04:28:06;14.30;1.00
11536;DHT22;5824;49.336;8.652;2023-10-09T04:30:45;14.30;1.00
11536;DHT22;5824;49.336;8.652;2023-10-09T04:33:19;14.20;1.00
11536;DHT22;5824;49.336;8.652;2023-10-09T04:36:06;14.20;1.00
11536;DHT22;5824;49.336;8.652;2023-10-09T04:38:48;14.10;1.00
11536;DHT22;5824;49.336;8.652;2023-10-09T04:41:28;14.10;1.00
11536;DHT22;5824;49.336;8.652;2023-10-09T04:43:57;13.80;1.00
11536;DHT22;5824;49.336;8.652;2023-10-09T04:46:50;14.20;1.00
11536;DHT22;5824;49.336;8.652;2023-10-09T04:49:35;14.30;1.00
11536;DHT22;5824;49.336;8.652;2023-10-09T04:52:19;14.30;1.00
11536;DHT22;5824;49.336;8.652;2023-10-09T04:54:51;14.40;1.00
11536;DHT22;5824;49.336;8.652;2023-10-09T05:00:15;14.40;1.00
11536;DHT22;5824;49.336;8.652;2023-10-09T05:03:02;14.40;1.00
11536;DHT22;5824;49.336;8.652;2023-10-09T05:05:48;14.40;1.00
11536;DHT22;5824;49.336;8.652;2023-10-09T05:08:23;14.80;1.00
11536;DHT22;5824;49.336;8.652;2023-10-09T05:10:54;14.40;1.00
11536;DHT22;5824;49.336;8.652;2023-10-09T05:13:23;14.40;1.00
11536;DHT22;5824;49.336;8.652;2023-10-09T05:16:18;14.50;1.00
11536;DHT22;5824;49.336;8.652;2023-10-09T05:18:44;14.50;1.00
11536;DHT22;5824;49.336;8.652;2023-10-09T05:21:13;14.50;1.00
11536;DHT22;5824;49.336;8.652;2023-10-09T05:24:09;14.60;1.00
11536;DHT22;5824;49.336;8.652;2023-10-09T05:31:48;14.70;1.00
11536;DHT22;5824;49.336;8.652;2023-10-09T05:34:25;14.70;1.00
11536;DHT22;5824;49.336;8.652;2023-10-09T05:37:05;14.70;1.00
11536;DHT22;5824;49.336;8.652;2023-10-09T05:39:48;14.80;1.00
11536;DHT22;5824;49.336;8.652;2023-10-09T05:42:30;14.70;1.00
11536;DHT22;5824;49.336;8.652;2023-10-09T05:45:12;14.70;1.00
11536;DHT22;5824;49.336;8.652;2023-10-09T05:47:56;14.70;1.00
11536;DHT22;5824;49.336;8.652;2023-10-09T05:50:25;14.80;1.00
11536;DHT22;5824;49.336;8.652;2023-10-09T05:52:52;14.80;1.00
11536;DHT22;5824;49.336;8.652;2023-10-09T05:55:22;14.80;1.00
11536;DHT22;5824;49.336;8.652;2023-10-09T05:57:55;14.70;1.00
11536;DHT22;5824;49.336;8.652;2023-10-09T06:00:59;14.80;1.00
11536;DHT22;5824;49.336;8.652;2023-10-09T06:03:43;14.80;1.00
11536;DHT22;5824;49.336;8.652;2023-10-09T06:06:11;14.80;1.00
11536;DHT22;5824;49.336;8.652;2023-10-09T06:08:43;14.90;1.00
11536;DHT22;5824;49.336;8.652;2023-10-09T06:11:11;14.90;1.00
11536;DHT22;5824;49.336;8.652;2023-10-09T06:13:56;14.90;1.00
11536;DHT22;5824;49.336;8.652;2023-10-09T06:16:41;15.00;1.00
11536;DHT22;5824;49.336;8.652;2023-10-09T06:19:07;15.10;1.00
11536;DHT22;5824;49.336;8.652;2023-10-09T06:21:36;15.10;1.00
11536;DHT22;5824;49.336;8.652;2023-10-09T06:24:25;15.20;1.00
11536;DHT22;5824;49.336;8.652;2023-10-09T06:27:11;15.30;1.00
11536;DHT22;5824;49.336;8.652;2023-10-09T06:29:41;15.40;1.00
11536;DHT22;5824;49.336;8.652;2023-10-09T06:32:10;15.40;1.00
11536;DHT22;5824;49.336;8.652;2023-10-09T06:34:53;15.50;1.00
11536;DHT22;5824;49.336;8.652;2023-10-09T06:37:23;15.50;1.00
11536;DHT22;5824;49.336;8.652;2023-10-09T06:39:56;15.60;1.00
11536;DHT22;5824;49.336;8.652;2023-10-09T06:42:28;15.60;1.00
11536;DHT22;5824;49.336;8.652;2023-10-09T06:45:08;15.60;1.00
11536;DHT22;5824;49.336;8.652;2023-10-09T06:47:40;15.70;1.00
11536;DHT22;5824;49.336;8.652;2023-10-09T06:50:18;15.70;1.00
11536;DHT22;5824;49.336;8.652;2023-10-09T06:52:48;15.70;1.00
11536;DHT22;5824;49.336;8.652;2023-10-09T06:55:23;15.80;1.00
11536;DHT22;5824;49.336;8.652;2023-10-09T06:58:02;15.90;1.00
11536;DHT22;5824;49.336;8.652;2023-10-09T07:00:41;15.90;1.00
11536;DHT22;5824;49.336;8.652;2023-10-09T07:03:28;16.00;1.00
11536;DHT22;5824;49.336;8.652;2023-10-09T07:06:09;16.00;1.00
11536;DHT22;5824;49.336;8.652;2023-10-09T07:08:53;16.00;1.00
11536;DHT22;5824;49.336;8.652;2023-10-09T07:11:37;16.00;1.00
11536;DHT22;5824;49.336;8.652;2023-10-09T07:14:13;16.10;1.00
11536;DHT22;5824;49.336;8.652;2023-10-09T07:17:09;16.10;1.00
11536;DHT22;5824;49.336;8.652;2023-10-09T07:19:42;16.10;1.00
11536;DHT22;5824;49.336;8.652;2023-10-09T07:22:11;16.30;1.00
11536;DHT22;5824;49.336;8.652;2023-10-09T07:24:47;16.50;1.00
11536;DHT22;5824;49.336;8.652;2023-10-09T07:27:19;16.60;1.00
11536;DHT22;5824;49.336;8.652;2023-10-09T07:30:06;16.70;1.00
11536;DHT22;5824;49.336;8.652;2023-10-09T07:32:53;16.70;1.00
11536;DHT22;5824;49.336;8.652;2023-10-09T07:35:23;17.00;1.00
11536;DHT22;5824;49.336;8.652;2023-10-09T07:38:07;17.20;1.00
11536;DHT22;5824;49.336;8.652;2023-10-09T07:40:35;17.40;1.00
11536;DHT22;5824;49.336;8.652;2023-10-09T07:43:20;17.50;1.00
11536;DHT22;5824;49.336;8.652;2023-10-09T07:45:53;17.50;1.00
11536;DHT22;5824;49.336;8.652;2023-10-09T07:48:39;17.60;1.00
11536;DHT22;5824;49.336;8.652;2023-10-09T07:51:18;17.70;1.00
11536;DHT22;5824;49.336;8.652;2023-10-09T07:53:51;17.80;1.00
11536;DHT22;5824;49.336;8.652;2023-10-09T07:56:23;17.80;1.00
11536;DHT22;5824;49.336;8.652;2023-10-09T07:58:48;17.90;1.00
11536;DHT22;5824;49.336;8.652;2023-10-09T08:01:15;18.00;1.00
11536;DHT22;5824;49.336;8.652;2023-10-09T08:03:42;18.00;1.00
11536;DHT22;5824;49.336;8.652;2023-10-09T08:06:14;18.10;1.00
11536;DHT22;5824;49.336;8.652;2023-10-09T08:08:59;18.20;1.00
11536;DHT22;5824;49.336;8.652;2023-10-09T08:11:28;18.30;1.00
11536;DHT22;5824;49.336;8.652;2023-10-09T08:14:20;18.20;1.00
11536;DHT22;5824;49.336;8.652;2023-10-09T08:17:00;18.30;1.00
11536;DHT22;5824;49.336;8.652;2023-10-09T08:19:46;18.30;1.00
11536;DHT22;5824;49.336;8.652;2023-10-09T08:22:37;18.30;1.00
11536;DHT22;5824;49.336;8.652;2023-10-09T08:25:10;18.40;1.00
11536;DHT22;5824;49.336;8.652;2023-10-09T08:27:58;18.40;1.00
11536;DHT22;5824;49.336;8.652;2023-10-09T08:30:44;18.50;1.00
11536;DHT22;5824;49.336;8.652;2023-10-09T08:33:29;18.70;1.00
11536;DHT22;5824;49.336;8.652;2023-10-09T08:36:07;19.10;1.00
11536;DHT22;5824;49.336;8.652;2023-10-09T08:38:33;19.40;1.00
11536;DHT22;5824;49.336;8.652;2023-10-09T08:41:12;19.70;1.00
11536;DHT22;5824;49.336;8.652;2023-10-09T08:43:53;20.00;1.00
11536;DHT22;5824;49.336;8.652;2023-10-09T08:46:20;20.20;1.00
11536;DHT22;5824;49.336;8.652;2023-10-09T08:48:46;20.40;1.00
11536;DHT22;5824;49.336;8.652;2023-10-09T08:51:12;20.50;1.00
11536;DHT22;5824;49.336;8.652;2023-10-09T08:53:39;20.50;1.00
11536;DHT22;5824;49.336;8.652;2023-10-09T08:56:09;20.60;1.00
11536;DHT22;5824;49.336;8.652;2023-10-09T08:58:35;20.80;1.00
11536;DHT22;5824;49.336;8.652;2023-10-09T09:01:04;21.00;1.00
11536;DHT22;5824;49.336;8.652;2023-10-09T09:03:40;21.40;1.00
11536;DHT22;5824;49.336;8.652;2023-10-09T09:06:09;21.90;1.00
11536;DHT22;5824;49.336;8.652;2023-10-09T09:08:34;22.10;1.00
11536;DHT22;5824;49.336;8.652;2023-10-09T09:11:08;22.30;1.00
11536;DHT22;5824;49.336;8.652;2023-10-09T09:13:47;22.50;1.00
11536;DHT22;5824;49.336;8.652;2023-10-09T09:19:00;22.40;1.00
11536;DHT22;5824;49.336;8.652;2023-10-09T09:21:29;22.50;1.00
11536;DHT22;5824;49.336;8.652;2023-10-09T09:24:00;22.60;1.00
11536;DHT22;5824;49.336;8.652;2023-10-09T09:26:34;22.80;1.00
11536;DHT22;5824;49.336;8.652;2023-10-09T09:29:01;22.90;1.00
11536;DHT22;5824;49.336;8.652;2023-10-09T09:31:28;23.00;1.00
11536;DHT22;5824;49.336;8.652;2023-10-09T09:33:56;23.00;1.00
11536;DHT22;5824;49.336;8.652;2023-10-09T09:36:27;22.80;1.00
11536;DHT22;5824;49.336;8.652;2023-10-09T09:38:58;22.50;1.00
11536;DHT22;5824;49.336;8.652;2023-10-09T09:41:27;22.40;1.00
11536;DHT22;5824;49.336;8.652;2023-10-09T09:43:57;22.30;1.00
11536;DHT22;5824;49.336;8.652;2023-10-09T09:46:33;22.10;1.00
11536;DHT22;5824;49.336;8.652;2023-10-09T09:49:05;21.90;1.00
11536;DHT22;5824;49.336;8.652;2023-10-09T09:51:37;21.70;1.00
11536;DHT22;5824;49.336;8.652;2023-10-09T09:54:03;21.60;1.00
11536;DHT22;5824;49.336;8.652;2023-10-09T09:56:36;21.60;1.00
11536;DHT22;5824;49.336;8.652;2023-10-09T09:59:05;21.60;1.00
11536;DHT22;5824;49.336;8.652;2023-10-09T10:01:32;21.80;1.00
11536;DHT22;5824;49.336;8.652;2023-10-09T10:04:15;21.90;1.00
11536;DHT22;5824;49.336;8.652;2023-10-09T10:06:46;22.10;1.00
11536;DHT22;5824;49.336;8.652;2023-10-09T10:09:38;22.20;1.00
11536;DHT22;5824;49.336;8.652;2023-10-09T10:12:05;22.40;1.00
11536;DHT22;5824;49.336;8.652;2023-10-09T10:14:58;22.60;1.00
11536;DHT22;5824;49.336;8.652;2023-10-09T10:17:25;22.60;1.00
11536;DHT22;5824;49.336;8.652;2023-10-09T10:20:00;22.60;1.00
11536;DHT22;5824;49.336;8.652;2023-10-09T10:22:38;22.50;1.00
11536;DHT22;5824;49.336;8.652;2023-10-09T10:25:04;22.30;1.00
11536;DHT22;5824;49.336;8.652;2023-10-09T10:27:34;22.30;1.00
11536;DHT22;5824;49.336;8.652;2023-10-09T10:35:20;21.90;1.00
11536;DHT22;5824;49.336;8.652;2023-10-09T10:37:58;21.90;1.00
11536;DHT22;5824;49.336;8.652;2023-10-09T10:40:33;22.00;1.00
11536;DHT22;5824;49.336;8.652;2023-10-09T10:43:17;22.10;1.00
11536;DHT22;5824;49.336;8.652;2023-10-09T10:46:06;22.00;1.00
11536;DHT22;5824;49.336;8.652;2023-10-09T10:48:53;21.80;1.00
11536;DHT22;5824;49.336;8.652;2023-10-09T10:51:28;21.80;1.00
11536;DHT22;5824;49.336;8.652;2023-10-09T10:54:08;21.90;1.00
11536;DHT22;5824;49.336;8.652;2023-10-09T10:56:54;22.20;1.00
11536;DHT22;5824;49.336;8.652;2023-10-09T10:59:23;22.60;1.00
11536;DHT22;5824;49.336;8.652;2023-10-09T11:01:50;23.20;1.00
11536;DHT22;5824;49.336;8.652;2023-10-09T11:04:23;23.20;1.00
11536;DHT22;5824;49.336;8.652;2023-10-09T11:06:56;23.60;1.00
11536;DHT22;5824;49.336;8.652;2023-10-09T11:09:26;23.50;1.00
11536;DHT22;5824;49.336;8.652;2023-10-09T11:12:05;23.40;1.00
11536;DHT22;5824;49.336;8.652;2023-10-09T11:14:48;23.40;1.00
11536;DHT22;5824;49.336;8.652;2023-10-09T11:17:35;23.60;1.00
11536;DHT22;5824;49.336;8.652;2023-10-09T11:20:02;24.00;1.00
11536;DHT22;5824;49.336;8.652;2023-10-09T11:22:52;24.30;1.00
11536;DHT22;5824;49.336;8.652;2023-10-09T11:25:45;24.30;1.00
11536;DHT22;5824;49.336;8.652;2023-10-09T11:28:19;25.90;1.00
11536;DHT22;5824;49.336;8.652;2023-10-09T11:31:13;27.60;1.00
11536;DHT22;5824;49.336;8.652;2023-10-09T11:33:50;28.00;1.00
11536;DHT22;5824;49.336;8.652;2023-10-09T11:36:17;27.10;1.00
11536;DHT22;5824;49.336;8.652;2023-10-09T11:38:47;26.80;1.00
11536;DHT22;5824;49.336;8.652;2023-10-09T11:41:15;27.00;1.00
11536;DHT22;5824;49.336;8.652;2023-10-09T11:43:54;27.50;1.00
11536;DHT22;5824;49.336;8.652;2023-10-09T11:46:23;26.80;1.00
11536;DHT22;5824;49.336;8.652;2023-10-09T11:49:08;26.50;1.00
11536;DHT22;5824;49.336;8.652;2023-10-09T11:51:46;25.60;1.00
11536;DHT22;5824;49.336;8.652;2023-10-09T11:54:31;26.60;1.00
11536;DHT22;5824;49.336;8.652;2023-10-09T11:56:58;25.10;1.00
11536;DHT22;5824;49.336;8.652;2023-10-09T11:59:26;24.90;1.00
11536;DHT22;5824;49.336;8.652;2023-10-09T12:01:52;24.80;1.00
11536;DHT22;5824;49.336;8.652;2023-10-09T12:04:18;24.90;1.00
11536;DHT22;5824;49.336;8.652;2023-10-09T12:06:44;24.80;1.00
11536;DHT22;5824;49.336;8.652;2023-10-09T12:09:10;25.30;1.00
11536;DHT22;5824;49.336;8.652;2023-10-09T12:11:48;26.80;1.00
11536;DHT22;5824;49.336;8.652;2023-10-09T12:14:18;26.80;1.00
11536;DHT22;5824;49.336;8.652;2023-10-09T12:16:49;27.40;1.00
11536;DHT22;5824;49.336;8.652;2023-10-09T12:19:15;28.20;1.00
11536;DHT22;5824;49.336;8.652;2023-10-09T12:21:41;30.30;1.00
11536;DHT22;5824;49.336;8.652;2023-10-09T12:24:08;30.20;1.00
11536;DHT22;5824;49.336;8.652;2023-10-09T12:26:37;30.90;1.00
11536;DHT22;5824;49.336;8.652;2023-10-09T12:29:05;30.70;1.00
11536;DHT22;5824;49.336;8.652;2023-10-09T12:31:36;29.90;1.00
11536;DHT22;5824;49.336;8.652;2023-10-09T12:34:02;29.20;1.00
11536;DHT22;5824;49.336;8.652;2023-10-09T12:36:28;29.40;1.00
11536;DHT22;5824;49.336;8.652;2023-10-09T12:38:53;30.00;1.00
11536;DHT22;5824;49.336;8.652;2023-10-09T12:41:20;30.90;1.00
11536;DHT22;5824;49.336;8.652;2023-10-09T12:43:52;32.00;1.00
11536;DHT22;5824;49.336;8.652;2023-10-09T12:46:18;33.20;1.00
11536;DHT22;5824;49.336;8.652;2023-10-09T12:48:51;33.80;1.00
11536;DHT22;5824;49.336;8.652;2023-10-09T12:51:20;33.70;1.00
11536;DHT22;5824;49.336;8.652;2023-10-09T12:53:46;33.30;1.00
11536;DHT22;5824;49.336;8.652;2023-10-09T12:56:25;33.20;1.00
11536;DHT22;5824;49.336;8.652;2023-10-09T12:59:02;33.40;1.00
11536;DHT22;5824;49.336;8.652;2023-10-09T13:01:30;33.70;1.00
11536;DHT22;5824;49.336;8.652;2023-10-09T13:03:58;33.20;1.00
11536;DHT22;5824;49.336;8.652;2023-10-09T13:06:25;33.10;1.00
11536;DHT22;5824;49.336;8.652;2023-10-09T13:08:51;32.80;1.00
11536;DHT22;5824;49.336;8.652;2023-10-09T13:11:17;32.80;1.00
11536;DHT22;5824;49.336;8.652;2023-10-09T13:13:44;32.10;1.00
11536;DHT22;5824;49.336;8.652;2023-10-09T13:16:16;32.10;1.00
11536;DHT22;5824;49.336;8.652;2023-10-09T13:18:55;32.30;1.00
11536;DHT22;5824;49.336;8.652;2023-10-09T13:21:23;32.80;1.00
11536;DHT22;5824;49.336;8.652;2023-10-09T13:23:49;32.80;1.00
11536;DHT22;5824;49.336;8.652;2023-10-09T13:26:17;33.10;1.00
11536;DHT22;5824;49.336;8.652;2023-10-09T13:28:50;33.40;1.00
11536;DHT22;5824;49.336;8.652;2023-10-09T13:31:16;32.40;1.00
11536;DHT22;5824;49.336;8.652;2023-10-09T13:33:43;32.10;1.00
11536;DHT22;5824;49.336;8.652;2023-10-09T13:36:10;31.30;1.00
11536;DHT22;5824;49.336;8.652;2023-10-09T13:38:43;31.00;1.00
11536;DHT22;5824;49.336;8.652;2023-10-09T13:41:09;30.90;1.00
11536;DHT22;5824;49.336;8.652;2023-10-09T13:43:41;30.70;1.00
11536;DHT22;5824;49.336;8.652;2023-10-09T13:46:09;29.90;1.00
11536;DHT22;5824;49.336;8.652;2023-10-09T13:48:35;28.70;1.00
11536;DHT22;5824;49.336;8.652;2023-10-09T13:51:04;27.90;1.00
11536;DHT22;5824;49.336;8.652;2023-10-09T13:53:33;27.70;1.00
11536;DHT22;5824;49.336;8.652;2023-10-09T13:56:02;27.40;1.00
11536;DHT22;5824;49.336;8.652;2023-10-09T13:58:28;27.40;1.00
11536;DHT22;5824;49.336;8.652;2023-10-09T14:00:53;27.20;1.00
11536;DHT22;5824;49.336;8.652;2023-10-09T14:03:19;27.00;1.00
11536;DHT22;5824;49.336;8.652;2023-10-09T14:05:49;26.90;1.00
11536;DHT22;5824;49.336;8.652;2023-10-09T14:08:22;26.80;1.00
11536;DHT22;5824;49.336;8.652;2023-10-09T14:10:49;26.60;1.00
11536;DHT22;5824;49.336;8.652;2023-10-09T14:13:15;26.70;1.00
11536;DHT22;5824;49.336;8.652;2023-10-09T14:15:43;26.60;1.00
11536;DHT22;5824;49.336;8.652;2023-10-09T14:18:11;26.50;1.00
11536;DHT22;5824;49.336;8.652;2023-10-09T14:20:40;26.60;1.00
11536;DHT22;5824;49.336;8.652;2023-10-09T14:23:06;26.60;1.00
11536;DHT22;5824;49.336;8.652;2023-10-09T14:25:36;26.70;1.00
11536;DHT22;5824;49.336;8.652;2023-10-09T14:28:07;27.00;1.00
11536;DHT22;5824;49.336;8.652;2023-10-09T14:30:36;27.10;1.00
11536;DHT22;5824;49.336;8.652;2023-10-09T14:33:09;27.10;1.00
11536;DHT22;5824;49.336;8.652;2023-10-09T14:35:41;27.20;1.00
11536;DHT22;5824;49.336;8.652;2023-10-09T14:38:08;26.90;1.00
11536;DHT22;5824;49.336;8.652;2023-10-09T14:40:42;27.00;1.00
11536;DHT22;5824;49.336;8.652;2023-10-09T14:43:08;26.80;1.00
11536;DHT22;5824;49.336;8.652;2023-10-09T14:45:41;26.80;1.00
11536;DHT22;5824;49.336;8.652;2023-10-09T14:48:08;26.90;1.00
11536;DHT22;5824;49.336;8.652;2023-10-09T14:50:36;27.00;1.00
11536;DHT22;5824;49.336;8.652;2023-10-09T14:53:04;27.00;1.00
11536;DHT22;5824;49.336;8.652;2023-10-09T14:55:29;27.10;1.00
11536;DHT22;5824;49.336;8.652;2023-10-09T14:57:57;27.40;1.00
11536;DHT22;5824;49.336;8.652;2023-10-09T15:00:24;27.10;1.00
11536;DHT22;5824;49.336;8.652;2023-10-09T15:02:50;27.10;1.00
11536;DHT22;5824;49.336;8.652;2023-10-09T15:05:18;27.10;1.00
11536;DHT22;5824;49.336;8.652;2023-10-09T15:07:44;27.10;1.00
11536;DHT22;5824;49.336;8.652;2023-10-09T15:10:10;27.10;1.00
11536;DHT22;5824;49.336;8.652;2023-10-09T15:12:40;26.90;1.00
11536;DHT22;5824;49.336;8.652;2023-10-09T15:15:09;26.90;1.00
11536;DHT22;5824;49.336;8.652;2023-10-09T15:17:42;26.80;1.00
11536;DHT22;5824;49.336;8.652;2023-10-09T15:20:13;26.90;1.00
11536;DHT22;5824;49.336;8.652;2023-10-09T15:22:42;26.90;1.00
11536;DHT22;5824;49.336;8.652;2023-10-09T15:25:08;26.80;1.00
11536;DHT22;5824;49.336;8.652;2023-10-09T15:27:34;26.60;1.00
11536;DHT22;5824;49.336;8.652;2023-10-09T15:29:59;26.60;1.00
11536;DHT22;5824;49.336;8.652;2023-10-09T15:32:25;26.50;1.00
11536;DHT22;5824;49.336;8.652;2023-10-09T15:34:57;26.40;1.00
11536;DHT22;5824;49.336;8.652;2023-10-09T15:37:23;26.20;1.00
11536;DHT22;5824;49.336;8.652;2023-10-09T15:39:48;26.20;1.00
11536;DHT22;5824;49.336;8.652;2023-10-09T15:42:15;26.10;1.00
11536;DHT22;5824;49.336;8.652;2023-10-09T15:44:42;25.90;1.00
11536;DHT22;5824;49.336;8.652;2023-10-09T15:47:07;25.80;1.00
11536;DHT22;5824;49.336;8.652;2023-10-09T15:49:37;25.70;1.00
11536;DHT22;5824;49.336;8.652;2023-10-09T15:52:06;25.60;1.00
11536;DHT22;5824;49.336;8.652;2023-10-09T15:54:34;25.60;1.00
11536;DHT22;5824;49.336;8.652;2023-10-09T15:56:59;25.40;1.00
11536;DHT22;5824;49.336;8.652;2023-10-09T15:59:25;25.40;1.00
11536;DHT22;5824;49.336;8.652;2023-10-09T16:01:50;25.10;1.00
11536;DHT22;5824;49.336;8.652;2023-10-09T16:04:17;25.10;1.00
11536;DHT22;5824;49.336;8.652;2023-10-09T16:06:43;25.00;1.00
11536;DHT22;5824;49.336;8.652;2023-10-09T16:09:08;24.90;1.00
11536;DHT22;5824;49.336;8.652;2023-10-09T16:11:37;24.80;1.00
11536;DHT22;5824;49.336;8.652;2023-10-09T16:14:05;24.70;1.00
11536;DHT22;5824;49.336;8.652;2023-10-09T16:16:35;24.60;1.00
11536;DHT22;5824;49.336;8.652;2023-10-09T16:19:11;24.50;1.00
11536;DHT22;5824;49.336;8.652;2023-10-09T16:21:37;24.40;1.00
11536;DHT22;5824;49.336;8.652;2023-10-09T16:24:03;24.20;1.00
11536;DHT22;5824;49.336;8.652;2023-10-09T16:26:32;24.00;1.00
11536;DHT22;5824;49.336;8.652;2023-10-09T16:29:06;23.90;1.00
11536;DHT22;5824;49.336;8.652;2023-10-09T16:31:33;23.80;1.00
11536;DHT22;5824;49.336;8.652;2023-10-09T16:34:02;23.70;1.00
11536;DHT22;5824;49.336;8.652;2023-10-09T16:36:32;23.60;1.00
11536;DHT22;5824;49.336;8.652;2023-10-09T16:38:58;23.60;1.00
11536;DHT22;5824;49.336;8.652;2023-10-09T16:41:27;23.40;1.00
11536;DHT22;5824;49.336;8.652;2023-10-09T16:43:53;23.10;1.00
11536;DHT22;5824;49.336;8.652;2023-10-09T16:46:19;23.00;1.00
11536;DHT22;5824;49.336;8.652;2023-10-09T16:48:50;22.80;1.00
11536;DHT22;5824;49.336;8.652;2023-10-09T16:51:23;22.60;1.00
11536;DHT22;5824;49.336;8.652;2023-10-09T16:53:49;22.50;1.00